createdAt,value
2023-02-15T00:00:18.594Z,3.00
2023-02-15T00:02:46.910Z,1.50
2023-02-15T00:05:15.265Z,1.25
2023-02-15T00:07:43.580Z,2.00
2023-02-15T00:10:13.934Z,1.75
2023-02-15T00:12:42.289Z,2.50
2023-02-15T00:15:10.823Z,2.00
2023-02-15T00:17:39.114Z,2.50
2023-02-15T00:20:08.226Z,2.25
2023-02-15T00:22:36.510Z,2.00
2023-02-15T00:25:05.802Z,2.00
2023-02-15T00:27:36.261Z,2.00
2023-02-15T00:30:04.723Z,2.00
2023-02-15T00:32:33.368Z,3.00
2023-02-15T00:35:01.650Z,2.50
2023-02-15T00:37:30.004Z,2.50
2023-02-15T00:39:58.300Z,1.50
2023-02-15T00:42:26.684Z,1.50
2023-02-15T00:44:55.076Z,3.00
2023-02-15T00:47:23.407Z,2.75
2023-02-15T00:49:51.698Z,3.00
2023-02-15T00:52:20.160Z,3.25
2023-02-15T00:54:48.514Z,3.00
2023-02-15T00:57:16.847Z,3.00
2023-02-15T00:59:45.130Z,2.00
2023-02-15T01:02:13.468Z,2.00
2023-02-15T01:04:41.517Z,2.25
2023-02-15T01:07:10.295Z,1.25
2023-02-15T01:09:38.560Z,3.00
2023-02-15T01:12:07.045Z,1.75
2023-02-15T01:14:35.330Z,2.00
2023-02-15T01:17:03.656Z,1.00
2023-02-15T01:19:32.016Z,2.00
2023-02-15T01:22:00.325Z,3.00
2023-02-15T01:24:28.620Z,1.50
2023-02-15T01:26:56.924Z,2.00
2023-02-15T01:29:25.214Z,3.00
2023-02-15T01:31:53.609Z,4.00
2023-02-15T01:34:21.958Z,2.25
2023-02-15T01:36:50.329Z,2.00
2023-02-15T01:39:18.640Z,2.50
2023-02-15T01:41:46.985Z,2.00
2023-02-15T01:44:49.063Z,3.00
2023-02-15T01:50:11.241Z,2.00
2023-02-15T01:52:47.165Z,2.50
2023-02-15T01:55:16.749Z,1.75
2023-02-15T01:57:48.110Z,1.50
2023-02-15T02:00:18.994Z,2.00
2023-02-15T02:02:51.252Z,2.00
2023-02-15T02:05:19.887Z,2.00
2023-02-15T02:07:51.000Z,2.75
2023-02-15T02:10:22.672Z,2.00
2023-02-15T02:12:53.926Z,3.00
2023-02-15T02:15:49.220Z,2.00
2023-02-15T02:18:44.515Z,3.00
2023-02-15T02:21:49.970Z,2.00
2023-02-15T02:25:00.768Z,2.50
2023-02-15T02:27:35.411Z,2.00
2023-02-15T02:30:24.898Z,1.75
2023-02-15T02:33:00.885Z,1.25
2023-02-15T02:35:41.515Z,1.75
2023-02-15T02:38:55.760Z,2.00
2023-02-15T02:41:42.481Z,2.25
2023-02-15T02:44:20.650Z,1.25
2023-02-15T02:46:52.954Z,3.00
2023-02-15T02:49:42.644Z,4.00
2023-02-15T02:52:41.817Z,2.00
2023-02-15T02:55:21.960Z,3.00
2023-02-15T02:57:58.355Z,2.00
2023-02-15T03:00:29.661Z,4.00
2023-02-15T03:03:16.805Z,3.50
2023-02-15T03:05:49.959Z,4.00
2023-02-15T03:08:23.802Z,2.25
2023-02-15T03:10:57.974Z,3.50
2023-02-15T03:13:26.921Z,3.00
2023-02-15T03:16:15.097Z,3.75
2023-02-15T03:18:59.762Z,3.00
2023-02-15T03:22:11.312Z,3.00
2023-02-15T03:25:04.294Z,2.75
2023-02-15T03:27:42.413Z,3.00
2023-02-15T03:30:13.067Z,2.00
2023-02-15T03:32:43.590Z,2.75
2023-02-15T03:35:12.643Z,2.50
2023-02-15T03:37:56.075Z,3.00
2023-02-15T03:41:13.961Z,1.00
2023-02-15T03:43:54.126Z,2.00
2023-02-15T03:46:25.181Z,3.50
2023-02-15T03:49:04.238Z,2.75
2023-02-15T03:51:38.481Z,1.50
2023-02-15T03:54:13.856Z,3.50
2023-02-15T03:57:04.192Z,1.75
2023-02-15T03:59:51.135Z,1.25
2023-02-15T04:02:33.413Z,2.00
2023-02-15T04:05:01.694Z,2.00
2023-02-15T04:07:29.960Z,1.75
2023-02-15T04:10:16.548Z,2.00
2023-02-15T04:12:44.819Z,2.00
2023-02-15T04:15:34.333Z,2.50
2023-02-15T04:18:05.337Z,3.50
2023-02-15T04:20:51.792Z,2.00
2023-02-15T04:23:38.561Z,1.50
2023-02-15T04:26:07.730Z,2.00
2023-02-15T04:28:36.057Z,2.00
2023-02-15T04:31:04.325Z,2.00
2023-02-15T04:33:32.917Z,1.50
2023-02-15T04:36:02.144Z,2.00
2023-02-15T04:38:30.593Z,2.00
2023-02-15T04:40:58.918Z,2.00
2023-02-15T04:43:27.199Z,1.50
2023-02-15T04:45:55.597Z,1.75
2023-02-15T04:48:24.002Z,1.25
2023-02-15T04:50:52.332Z,1.00
2023-02-15T04:53:20.697Z,2.00
2023-02-15T04:55:48.971Z,1.00
2023-02-15T04:58:17.277Z,2.00
2023-02-15T05:00:45.628Z,1.00
2023-02-15T05:03:13.955Z,1.75
2023-02-15T05:05:42.564Z,2.25
2023-02-15T05:08:10.860Z,3.75
2023-02-15T05:10:39.134Z,1.75
2023-02-15T05:13:07.459Z,2.25
2023-02-15T05:15:35.835Z,3.75
2023-02-15T05:18:04.129Z,1.75
2023-02-15T05:20:32.433Z,2.25
2023-02-15T05:23:00.745Z,2.75
2023-02-15T05:25:47.342Z,2.00
2023-02-15T05:28:21.522Z,3.25
2023-02-15T05:31:14.563Z,2.75
2023-02-15T05:33:43.184Z,2.25
2023-02-15T05:36:12.077Z,2.00
2023-02-15T05:38:41.393Z,2.50
2023-02-15T05:41:12.303Z,3.00
2023-02-15T05:43:41.613Z,2.50
2023-02-15T05:46:10.344Z,3.50
2023-02-15T05:48:38.794Z,4.00
2023-02-15T05:51:09.810Z,3.00
2023-02-15T05:53:41.060Z,3.25
2023-02-15T05:56:11.325Z,2.50
2023-02-15T05:58:41.853Z,3.75
2023-02-15T06:01:23.105Z,2.00
2023-02-15T06:03:51.954Z,2.50
2023-02-15T06:06:20.302Z,3.25
2023-02-15T06:08:48.588Z,3.00
2023-02-15T06:11:16.884Z,3.50
2023-02-15T06:13:45.176Z,3.75
2023-02-15T06:16:13.564Z,3.25
2023-02-15T06:18:41.934Z,3.50
2023-02-15T06:21:10.266Z,3.50
2023-02-15T06:23:38.643Z,3.00
2023-02-15T06:26:07.038Z,3.00
2023-02-15T06:28:35.469Z,4.00
2023-02-15T06:31:04.042Z,3.00
2023-02-15T06:33:38.045Z,4.75
2023-02-15T06:36:06.958Z,3.50
2023-02-15T06:38:35.393Z,3.25
2023-02-15T06:41:04.538Z,3.50
2023-02-15T06:43:32.923Z,3.25
2023-02-15T06:46:01.762Z,3.00
2023-02-15T06:48:30.293Z,3.75
2023-02-15T06:50:59.289Z,2.00
2023-02-15T06:53:27.615Z,2.75
2023-02-15T06:56:04.736Z,2.00
2023-02-15T06:58:33.039Z,4.00
2023-02-15T07:01:01.561Z,3.00
2023-02-15T07:03:29.997Z,3.25
2023-02-15T07:06:00.198Z,2.25
2023-02-15T07:08:29.923Z,2.75
2023-02-15T07:11:18.791Z,3.00
2023-02-15T07:13:47.868Z,3.25
2023-02-15T07:16:16.340Z,3.25
2023-02-15T07:18:44.726Z,2.00
2023-02-15T07:21:13.138Z,2.25
2023-02-15T07:23:42.622Z,3.75
2023-02-15T07:26:10.952Z,2.75
2023-02-15T07:28:39.436Z,1.00
2023-02-15T07:31:08.339Z,2.00
2023-02-15T07:33:37.130Z,2.50
2023-02-15T07:36:06.965Z,3.25
2023-02-15T07:38:37.789Z,2.50
2023-02-15T07:41:09.662Z,1.75
2023-02-15T07:43:41.005Z,2.50
2023-02-15T07:46:11.834Z,2.00
2023-02-15T07:48:41.496Z,3.50
2023-02-15T07:51:11.617Z,3.00
2023-02-15T07:53:41.761Z,2.00
2023-02-15T07:56:13.614Z,2.50
2023-02-15T07:58:53.963Z,3.00
2023-02-15T08:01:39.644Z,2.75
2023-02-15T08:04:09.675Z,3.00
2023-02-15T08:06:38.432Z,1.75
2023-02-15T08:09:08.960Z,2.00
2023-02-15T08:11:41.466Z,2.00
2023-02-15T08:14:12.696Z,1.75
2023-02-15T08:16:43.755Z,1.75
2023-02-15T08:19:18.055Z,2.00
2023-02-15T08:21:49.330Z,2.00
2023-02-15T08:24:20.437Z,2.50
2023-02-15T08:26:49.714Z,3.00
2023-02-15T08:29:20.210Z,3.50
2023-02-15T08:31:49.801Z,4.00
2023-02-15T08:34:20.459Z,2.25
2023-02-15T08:36:49.125Z,2.00
2023-02-15T08:39:17.980Z,1.25
2023-02-15T08:41:48.469Z,1.00
2023-02-15T08:44:18.997Z,1.00
2023-02-15T08:46:48.969Z,1.25
2023-02-15T08:49:24.445Z,1.25
2023-02-15T08:51:52.782Z,1.50
2023-02-15T08:54:23.755Z,1.00
2023-02-15T08:56:52.087Z,3.00
2023-02-15T08:59:25.081Z,1.00
2023-02-15T09:01:54.229Z,1.00
2023-02-15T09:04:24.453Z,1.75
2023-02-15T09:06:54.288Z,2.00
2023-02-15T09:09:23.431Z,1.00
2023-02-15T09:11:58.759Z,0.75
2023-02-15T09:14:28.780Z,2.00
2023-02-15T09:16:57.766Z,1.00
2023-02-15T09:19:26.473Z,0.75
2023-02-15T09:21:54.952Z,1.75
2023-02-15T09:24:23.600Z,1.25
2023-02-15T09:26:52.063Z,1.00
2023-02-15T09:29:21.493Z,1.25
2023-02-15T09:31:52.307Z,1.00
2023-02-15T09:34:23.497Z,1.00
2023-02-15T09:36:52.861Z,1.00
2023-02-15T09:39:25.588Z,2.00
2023-02-15T09:42:12.237Z,2.00
2023-02-15T09:44:55.692Z,2.00
2023-02-15T09:47:48.716Z,1.00
2023-02-15T09:50:36.638Z,1.50
2023-02-15T09:53:59.106Z,1.50
2023-02-15T09:56:50.068Z,1.00
2023-02-15T09:59:32.815Z,1.00
2023-02-15T10:02:04.290Z,1.50
2023-02-15T10:04:57.700Z,2.00
2023-02-15T10:07:47.340Z,1.75
2023-02-15T10:10:21.708Z,2.00
2023-02-15T10:13:47.356Z,2.25
2023-02-15T10:16:38.475Z,2.00
2023-02-15T10:19:18.754Z,2.25
2023-02-15T10:22:13.305Z,2.50
2023-02-15T10:24:53.830Z,2.75
2023-02-15T10:27:23.866Z,2.75
2023-02-15T10:30:38.362Z,3.00
2023-02-15T10:33:33.147Z,3.50
2023-02-15T10:36:43.585Z,2.75
2023-02-15T10:39:31.464Z,2.50
2023-02-15T10:42:21.531Z,3.00
2023-02-15T10:44:56.685Z,4.00
2023-02-15T10:47:27.566Z,3.50
2023-02-15T10:50:27.563Z,3.50
2023-02-15T10:53:12.847Z,3.00
2023-02-15T10:56:03.112Z,3.75
2023-02-15T10:58:50.558Z,3.25
2023-02-15T11:01:31.956Z,3.00
2023-02-15T11:04:19.313Z,3.50
2023-02-15T11:06:56.142Z,4.75
2023-02-15T11:09:30.040Z,5.25
2023-02-15T11:12:02.921Z,5.50
2023-02-15T11:14:46.850Z,5.50
2023-02-15T11:17:20.188Z,5.00
2023-02-15T11:20:21.064Z,4.75
2023-02-15T11:22:51.981Z,5.50
2023-02-15T11:25:26.402Z,4.25
2023-02-15T11:27:56.621Z,5.00
2023-02-15T11:30:30.106Z,5.50
2023-02-15T11:33:05.030Z,6.50
2023-02-15T11:35:52.651Z,5.00
2023-02-15T11:38:31.823Z,4.50
2023-02-15T11:41:08.466Z,5.75
2023-02-15T11:43:50.159Z,7.25
2023-02-15T11:46:18.601Z,10.25
2023-02-15T11:48:47.235Z,6.75
2023-02-15T11:51:20.516Z,6.00
2023-02-15T11:53:51.249Z,6.50
2023-02-15T11:56:23.724Z,5.00
2023-02-15T11:59:02.528Z,6.00
2023-02-15T12:01:46.597Z,6.25
2023-02-15T12:04:17.898Z,5.25
2023-02-15T12:06:51.702Z,6.50
2023-02-15T12:09:43.029Z,7.75
2023-02-15T12:12:32.427Z,8.00
2023-02-15T12:15:03.621Z,7.25
2023-02-15T12:17:52.510Z,8.75
2023-02-15T12:20:20.755Z,7.25
2023-02-15T12:22:56.605Z,6.50
2023-02-15T12:25:31.545Z,6.75
2023-02-15T12:28:00.260Z,7.00
2023-02-15T12:30:36.094Z,7.75
2023-02-15T12:33:27.671Z,8.25
2023-02-15T12:36:43.660Z,8.50
2023-02-15T12:39:14.988Z,7.25
2023-02-15T12:41:48.658Z,7.00
2023-02-15T12:44:22.677Z,9.00
2023-02-15T12:47:21.457Z,9.00
2023-02-15T12:50:12.134Z,8.50
2023-02-15T12:52:41.384Z,10.00
2023-02-15T12:55:32.692Z,9.75
2023-02-15T12:58:27.058Z,10.50
2023-02-15T13:01:14.021Z,8.25
2023-02-15T13:04:16.846Z,9.25
2023-02-15T13:06:51.767Z,8.00
2023-02-15T13:09:37.996Z,10.50
2023-02-15T13:12:28.323Z,9.75
2023-02-15T13:14:58.126Z,9.75
2023-02-15T13:17:36.428Z,8.00
2023-02-15T13:20:12.211Z,9.00
2023-02-15T13:22:45.434Z,9.00
2023-02-15T13:25:24.501Z,9.00
2023-02-15T13:28:04.648Z,10.75
2023-02-15T13:30:36.863Z,11.00
2023-02-15T13:33:09.506Z,12.50
2023-02-15T13:35:52.170Z,11.00
2023-02-15T13:38:39.089Z,10.25
2023-02-15T13:41:15.366Z,10.00
2023-02-15T13:44:19.060Z,12.00
2023-02-15T13:47:15.701Z,11.25
2023-02-15T13:50:13.302Z,11.00
2023-02-15T13:52:56.033Z,9.25
2023-02-15T13:55:56.456Z,11.25
2023-02-15T13:58:59.047Z,7.25
2023-02-15T14:01:53.768Z,10.00
2023-02-15T14:04:41.407Z,7.75
2023-02-15T14:07:28.263Z,9.25
2023-02-15T14:10:24.287Z,8.00
2023-02-15T14:13:30.013Z,10.50
2023-02-15T14:16:11.495Z,9.25
2023-02-15T14:18:45.633Z,9.00
2023-02-15T14:21:37.250Z,8.50
2023-02-15T14:24:23.356Z,8.25
2023-02-15T14:26:51.715Z,8.00
2023-02-15T14:29:48.730Z,7.50
2023-02-15T14:32:37.492Z,7.00
2023-02-15T14:35:08.174Z,7.00
2023-02-15T14:38:20.266Z,6.75
2023-02-15T14:41:03.215Z,6.00
2023-02-15T14:43:47.124Z,6.00
2023-02-15T14:46:29.807Z,7.00
2023-02-15T14:49:05.871Z,5.25
2023-02-15T14:51:47.419Z,4.00
2023-02-15T14:54:19.014Z,5.25
2023-02-15T14:56:48.606Z,5.25
2023-02-15T14:59:26.023Z,5.25
2023-02-15T15:02:05.901Z,6.00
2023-02-15T15:04:39.631Z,5.00
2023-02-15T15:07:16.812Z,5.50
2023-02-15T15:09:48.764Z,4.00
2023-02-15T15:12:26.388Z,5.75
2023-02-15T15:14:56.686Z,5.00
2023-02-15T15:17:34.446Z,5.00
2023-02-15T15:20:05.940Z,4.75
2023-02-15T15:22:35.731Z,4.50
2023-02-15T15:25:34.710Z,5.00
2023-02-15T15:28:04.701Z,5.00
2023-02-15T15:30:33.045Z,5.00
2023-02-15T15:33:15.948Z,5.00
2023-02-15T15:36:21.349Z,6.50
2023-02-15T15:39:08.269Z,5.75
2023-02-15T15:41:44.426Z,5.25
2023-02-15T15:44:45.910Z,8.00
2023-02-15T15:47:51.352Z,6.75
2023-02-15T15:50:22.891Z,6.00
2023-02-15T15:52:57.635Z,7.00
2023-02-15T15:55:29.734Z,7.25
2023-02-15T15:58:10.117Z,7.50
2023-02-15T16:00:53.742Z,6.00
2023-02-15T16:03:27.742Z,4.00
2023-02-15T16:05:57.436Z,5.25
2023-02-15T16:08:35.106Z,5.00
2023-02-15T16:11:10.354Z,4.00
2023-02-15T16:13:38.781Z,4.75
2023-02-15T16:16:08.117Z,6.00
2023-02-15T16:18:46.397Z,5.00
2023-02-15T16:21:30.930Z,5.50
2023-02-15T16:24:10.293Z,5.25
2023-02-15T16:27:12.666Z,4.50
2023-02-15T16:29:40.982Z,5.00
2023-02-15T16:32:26.797Z,5.00
2023-02-15T16:34:59.769Z,6.25
2023-02-15T16:37:30.442Z,5.25
2023-02-15T16:39:58.956Z,5.00
2023-02-15T16:42:27.807Z,6.00
2023-02-15T16:45:08.214Z,6.75
2023-02-15T16:47:42.935Z,6.00
2023-02-15T16:50:21.795Z,5.25
2023-02-15T16:52:50.438Z,6.25
2023-02-15T16:55:27.444Z,7.00
2023-02-15T16:58:04.606Z,5.50
2023-02-15T17:00:38.590Z,6.00
2023-02-15T17:03:15.647Z,7.00
2023-02-15T17:05:46.914Z,7.00
2023-02-15T17:08:31.513Z,9.00
2023-02-15T17:11:23.911Z,7.00
2023-02-15T17:14:16.476Z,6.75
2023-02-15T17:16:51.670Z,4.50
2023-02-15T17:19:51.808Z,6.00
2023-02-15T17:22:24.831Z,7.00
2023-02-15T17:25:02.012Z,5.00
2023-02-15T17:27:34.948Z,5.25
2023-02-15T17:30:24.766Z,5.00
2023-02-15T17:32:59.639Z,4.75
2023-02-15T17:35:35.306Z,4.00
2023-02-15T17:38:17.063Z,4.00
2023-02-15T17:40:45.385Z,4.25
2023-02-15T17:43:13.726Z,2.75
2023-02-15T17:45:49.067Z,2.50
2023-02-15T17:48:35.698Z,3.00
2023-02-15T17:51:07.074Z,3.00
2023-02-15T17:53:35.584Z,2.75
2023-02-15T17:56:11.341Z,4.00
2023-02-15T17:58:42.150Z,1.00
2023-02-15T18:01:37.785Z,2.00
2023-02-15T18:04:24.851Z,2.50
2023-02-15T18:07:11.456Z,2.25
2023-02-15T18:09:57.977Z,2.00
2023-02-15T18:12:31.811Z,1.00
2023-02-15T18:15:01.598Z,2.00
2023-02-15T18:17:36.970Z,1.75
2023-02-15T18:20:19.006Z,2.00
2023-02-15T18:22:48.149Z,2.00
2023-02-15T18:25:19.736Z,1.00
2023-02-15T18:27:48.356Z,1.00
2023-02-15T18:30:22.512Z,4.00
2023-02-15T18:32:54.032Z,2.00
2023-02-15T18:35:25.606Z,2.50
2023-02-15T18:37:55.571Z,2.50
2023-02-15T18:40:26.641Z,1.00
2023-02-15T18:42:57.779Z,2.00
2023-02-15T18:45:33.767Z,2.25
2023-02-15T18:48:02.636Z,2.25
2023-02-15T18:50:35.415Z,3.00
2023-02-15T18:53:12.998Z,2.75
2023-02-15T18:55:41.382Z,2.50
2023-02-15T18:58:19.258Z,3.00
2023-02-15T19:00:48.056Z,2.75
2023-02-15T19:03:19.875Z,2.00
2023-02-15T19:05:49.296Z,1.25
2023-02-15T19:08:25.432Z,2.00
2023-02-15T19:10:54.023Z,2.00
2023-02-15T19:13:22.326Z,2.75
2023-02-15T19:15:50.626Z,2.75
2023-02-15T19:18:20.157Z,2.00
2023-02-15T19:20:49.474Z,1.75
2023-02-15T19:23:24.168Z,2.00
2023-02-15T19:25:55.026Z,1.50
2023-02-15T19:28:34.457Z,0.00
2023-02-15T19:31:02.929Z,2.25
2023-02-15T19:33:31.457Z,1.00
2023-02-15T19:35:59.967Z,2.00
2023-02-15T19:38:32.173Z,2.00
2023-02-15T19:41:08.890Z,1.00
2023-02-15T19:43:37.510Z,2.00
2023-02-15T19:46:06.458Z,1.25
2023-02-15T19:48:34.920Z,1.00
2023-02-15T19:51:04.603Z,1.00
2023-02-15T19:53:32.971Z,2.00
2023-02-15T19:56:02.125Z,1.25
2023-02-15T19:58:30.908Z,0.75
2023-02-15T20:00:59.249Z,1.50
2023-02-15T20:03:27.579Z,1.00
2023-02-15T20:05:55.969Z,1.00
2023-02-15T20:08:24.687Z,1.75
2023-02-15T20:10:53.013Z,1.00
2023-02-15T20:13:22.099Z,0.00
2023-02-15T20:15:51.785Z,1.00
2023-02-15T20:18:22.390Z,2.00
2023-02-15T20:20:56.260Z,2.75
2023-02-15T20:23:28.982Z,2.75
2023-02-15T20:26:13.785Z,3.25
2023-02-15T20:28:42.098Z,5.75
2023-02-15T20:31:17.504Z,4.75
2023-02-15T20:33:45.866Z,4.25
2023-02-15T20:36:17.046Z,4.50
2023-02-15T20:38:46.590Z,4.50
2023-02-15T20:41:38.446Z,5.00
2023-02-15T20:44:26.485Z,4.00
2023-02-15T20:46:57.659Z,3.00
2023-02-15T20:49:28.029Z,3.00
2023-02-15T20:51:57.926Z,3.75
2023-02-15T20:54:30.165Z,3.75
2023-02-15T20:56:58.521Z,3.25
2023-02-15T20:59:35.873Z,4.25
2023-02-15T21:02:21.088Z,4.00
2023-02-15T21:04:49.485Z,3.00
2023-02-15T21:07:19.569Z,2.25
2023-02-15T21:09:48.028Z,3.25
2023-02-15T21:12:19.528Z,3.00
2023-02-15T21:14:48.510Z,3.00
2023-02-15T21:17:18.376Z,3.00
2023-02-15T21:19:47.165Z,3.00
2023-02-15T21:22:16.796Z,3.00
2023-02-15T21:24:54.566Z,3.00
2023-02-15T21:27:23.278Z,3.00
2023-02-15T21:29:51.760Z,3.00
2023-02-15T21:32:20.166Z,3.00
2023-02-15T21:34:48.518Z,2.75
2023-02-15T21:37:32.792Z,3.00
2023-02-15T21:40:01.330Z,2.75
2023-02-15T21:42:48.406Z,3.50
2023-02-15T21:45:44.684Z,3.00
2023-02-15T21:48:12.998Z,3.75
2023-02-15T21:51:00.892Z,3.00
2023-02-15T21:53:46.836Z,3.25
2023-02-15T21:56:21.020Z,3.00
2023-02-15T21:58:49.959Z,2.00
2023-02-15T22:01:24.431Z,3.00
2023-02-15T22:03:54.977Z,3.25
2023-02-15T22:06:23.671Z,1.00
2023-02-15T22:08:52.003Z,3.00
2023-02-15T22:11:23.536Z,3.25
2023-02-15T22:13:52.729Z,3.00
2023-02-15T22:16:23.870Z,3.25
2023-02-15T22:18:52.218Z,2.50
2023-02-15T22:21:21.754Z,2.00
2023-02-15T22:23:50.046Z,4.00
2023-02-15T22:26:26.285Z,2.00
2023-02-15T22:28:54.824Z,4.00
2023-02-15T22:31:24.574Z,3.00
2023-02-15T22:33:53.199Z,3.00
2023-02-15T22:36:30.289Z,3.00
2023-02-15T22:38:59.375Z,2.25
2023-02-15T22:41:31.557Z,2.00
2023-02-15T22:44:00.305Z,2.00
2023-02-15T22:46:28.687Z,3.00
2023-02-15T22:48:57.037Z,2.75
2023-02-15T22:51:26.249Z,3.00
2023-02-15T22:53:54.870Z,3.00
2023-02-15T22:56:29.020Z,2.25
2023-02-15T22:59:03.305Z,3.25
2023-02-15T23:01:34.409Z,3.75
2023-02-15T23:04:04.134Z,2.75
2023-02-15T23:06:35.132Z,3.00
2023-02-15T23:09:03.583Z,1.50
2023-02-15T23:11:31.919Z,3.00
2023-02-15T23:14:00.225Z,3.00
2023-02-15T23:16:28.552Z,3.00
2023-02-15T23:18:57.238Z,2.00
2023-02-15T23:21:32.411Z,2.25
2023-02-15T23:24:22.982Z,2.00
2023-02-15T23:26:51.907Z,2.00
2023-02-15T23:29:23.652Z,3.00
2023-02-15T23:31:54.773Z,3.00
2023-02-15T23:34:29.557Z,2.00
2023-02-15T23:36:58.845Z,2.75
2023-02-15T23:39:47.933Z,3.00
2023-02-15T23:42:20.458Z,2.50
2023-02-15T23:44:50.062Z,2.00
2023-02-15T23:47:49.249Z,2.00
2023-02-15T23:50:26.152Z,2.00
2023-02-15T23:52:55.928Z,2.25
2023-02-15T23:55:29.775Z,2.75
2023-02-15T23:57:58.109Z,3.00
